Time,TemperatureF,DewpointF,PressureIn,WindDirection,WindDirectionDegrees,WindSpeedMPH,WindSpeedGustMPH,Humidity,HourlyPrecipIn,Conditions,Clouds,dailyrainin,SoftwareType,DateUTC
2013-01-29 00:00:00,48.0,40.1,30.34,NW,318,1.0,5.0,74,0.00,,,0.00,meteohub,2013-01-29 08:00:00,
2013-01-29 00:05:00,47.8,39.9,30.34,NW,318,0.0,5.0,74,0.00,,,0.00,meteohub,2013-01-29 08:05:00,
2013-01-29 00:10:00,47.5,39.6,30.35,NW,320,0.0,5.0,74,0.00,,,0.00,meteohub,2013-01-29 08:10:00,
2013-01-29 00:15:00,46.9,39.4,30.35,NNW,329,0.0,5.0,75,0.00,,,0.00,meteohub,2013-01-29 08:15:00,
2013-01-29 00:20:00,46.6,39.4,30.35,NNW,331,0.0,3.0,76,0.00,,,0.00,meteohub,2013-01-29 08:20:00,
2013-01-29 00:25:00,46.2,39.4,30.35,NNW,330,0.0,3.0,77,0.00,,,0.00,meteohub,2013-01-29 08:25:00,
2013-01-29 00:30:00,46.0,39.6,30.35,NNW,328,0.0,3.0,78,0.00,,,0.00,meteohub,2013-01-29 08:30:00,
2013-01-29 00:35:00,46.0,39.6,30.35,NNW,329,0.0,1.0,78,0.00,,,0.00,meteohub,2013-01-29 08:35:00,
2013-01-29 00:40:00,46.0,39.6,30.35,NNW,330,0.0,2.0,78,0.00,,,0.00,meteohub,2013-01-29 08:40:00,
2013-01-29 00:45:00,46.0,39.6,30.35,NNW,330,0.0,2.0,78,0.00,,,0.00,meteohub,2013-01-29 08:45:00,
2013-01-29 00:50:00,46.2,39.4,30.35,NNW,330,0.0,2.0,77,0.00,,,0.00,meteohub,2013-01-29 08:50:00,
2013-01-29 00:55:00,46.0,39.2,30.35,NNW,330,0.0,2.0,77,0.00,,,0.00,meteohub,2013-01-29 08:55:00,
2013-01-29 01:00:00,46.2,39.4,30.35,NW,314,6.0,6.0,77,0.00,,,0.00,meteohub,2013-01-29 09:00:00,
2013-01-29 01:05:00,46.9,39.4,30.35,NW,323,4.0,13.0,75,0.00,,,0.00,meteohub,2013-01-29 09:05:00,
2013-01-29 01:10:00,47.1,39.2,30.35,NNW,330,0.0,13.0,74,0.00,,,0.00,meteohub,2013-01-29 09:10:00,
2013-01-29 01:15:00,46.9,39.0,30.34,NNW,332,0.0,7.0,74,0.00,,,0.00,meteohub,2013-01-29 09:15:00,
2013-01-29 01:20:00,46.9,39.4,30.35,NW,314,2.0,5.0,75,0.00,,,0.00,meteohub,2013-01-29 09:20:00,
2013-01-29 01:26:00,47.1,39.2,30.34,NNW,330,5.0,5.0,74,0.00,,,0.00,meteohub,2013-01-29 09:26:00,
2013-01-29 01:31:00,47.5,39.6,30.35,NNW,329,4.0,5.0,74,0.00,,,0.00,meteohub,2013-01-29 09:31:00,
2013-01-29 01:36:00,47.5,39.6,30.35,NNW,328,0.0,5.0,74,0.00,,,0.00,meteohub,2013-01-29 09:36:00,
2013-01-29 01:41:00,47.5,39.6,30.35,NNW,329,0.0,5.0,74,0.00,,,0.00,meteohub,2013-01-29 09:41:00,
2013-01-29 01:46:00,47.5,39.6,30.35,NNW,330,1.0,4.0,74,0.00,,,0.00,meteohub,2013-01-29 09:46:00,
2013-01-29 01:51:00,47.7,39.7,30.35,NW,315,4.0,5.0,74,0.00,,,0.00,meteohub,2013-01-29 09:51:00,
2013-01-29 01:56:00,47.5,39.6,30.35,NW,318,2.0,5.0,74,0.00,,,0.00,meteohub,2013-01-29 09:56:00,
2013-01-29 02:01:00,47.5,39.6,30.35,NW,320,1.0,5.0,74,0.00,,,0.00,meteohub,2013-01-29 10:01:00,
2013-01-29 02:06:00,47.1,39.2,30.35,NNW,328,0.0,5.0,74,0.00,,,0.00,meteohub,2013-01-29 10:06:00,
2013-01-29 02:11:00,47.1,39.2,30.35,NNW,328,0.0,5.0,74,0.00,,,0.00,meteohub,2013-01-29 10:11:00,
2013-01-29 02:16:00,46.9,39.0,30.35,NNW,329,0.0,5.0,74,0.00,,,0.00,meteohub,2013-01-29 10:16:00,
2013-01-29 02:21:00,46.8,39.2,30.36,NNW,328,0.0,3.0,75,0.00,,,0.00,meteohub,2013-01-29 10:21:00,
2013-01-29 02:26:00,46.8,39.2,30.36,NNW,328,0.0,2.0,75,0.00,,,0.00,meteohub,2013-01-29 10:26:00,
2013-01-29 02:31:00,46.8,39.6,30.36,NNW,328,0.0,1.0,76,0.00,,,0.00,meteohub,2013-01-29 10:31:00,
2013-01-29 02:36:00,46.8,39.6,30.36,NNW,331,4.0,4.0,76,0.00,,,0.00,meteohub,2013-01-29 10:36:00,
2013-01-29 02:41:00,46.8,39.2,30.36,NNW,333,2.0,5.0,75,0.00,,,0.00,meteohub,2013-01-29 10:41:00,
2013-01-29 02:46:00,46.8,39.6,30.36,NNW,332,2.0,5.0,76,0.00,,,0.00,meteohub,2013-01-29 10:46:00,
2013-01-29 02:51:00,46.6,39.4,30.35,NNW,333,2.0,5.0,76,0.00,,,0.00,meteohub,2013-01-29 10:51:00,
2013-01-29 02:56:00,46.4,39.2,30.35,NNW,339,2.0,4.0,76,0.00,,,0.00,meteohub,2013-01-29 10:56:00,
2013-01-29 03:01:00,46.2,39.0,30.35,NNW,341,0.0,6.0,76,0.00,,,0.00,meteohub,2013-01-29 11:01:00,
2013-01-29 03:06:00,46.2,38.7,30.35,NNW,341,0.0,6.0,75,0.00,,,0.00,meteohub,2013-01-29 11:06:00,
2013-01-29 03:12:00,46.0,38.8,30.35,NNW,340,0.0,6.0,76,0.00,,,0.00,meteohub,2013-01-29 11:12:00,
2013-01-29 03:17:00,45.9,38.3,30.35,NNW,339,0.0,1.0,75,0.00,,,0.00,meteohub,2013-01-29 11:17:00,
2013-01-29 03:22:00,45.5,38.3,30.36,NNW,339,0.0,1.0,76,0.00,,,0.00,meteohub,2013-01-29 11:22:00,
2013-01-29 03:27:00,45.3,38.5,30.36,NNW,340,0.0,1.0,77,0.00,,,0.00,meteohub,2013-01-29 11:27:00,
2013-01-29 03:32:00,45.5,39.0,30.36,NNW,341,0.0,1.0,78,0.00,,,0.00,meteohub,2013-01-29 11:32:00,
2013-01-29 03:37:00,45.5,38.7,30.36,NNW,341,0.0,1.0,77,0.00,,,0.00,meteohub,2013-01-29 11:37:00,
2013-01-29 03:42:00,45.3,38.5,30.36,NNW,339,0.0,1.0,77,0.00,,,0.00,meteohub,2013-01-29 11:42:00,
2013-01-29 03:47:00,45.1,38.7,30.36,NNW,339,0.0,1.0,78,0.00,,,0.00,meteohub,2013-01-29 11:47:00,
2013-01-29 03:52:00,44.8,38.3,30.36,NNW,341,0.0,1.0,78,0.00,,,0.00,meteohub,2013-01-29 11:52:00,
2013-01-29 03:57:00,44.4,38.3,30.36,NNW,339,0.0,1.0,79,0.00,,,0.00,meteohub,2013-01-29 11:57:00,
2013-01-29 04:02:00,44.1,37.9,30.36,NNW,339,0.0,1.0,79,0.00,,,0.00,meteohub,2013-01-29 12:02:00,
2013-01-29 04:07:00,43.7,38.5,30.35,NNE,16,2.0,2.0,82,0.00,,,0.00,meteohub,2013-01-29 12:07:00,
2013-01-29 04:12:00,43.9,38.5,30.35,NNE,18,2.0,3.0,81,0.00,,,0.00,meteohub,2013-01-29 12:12:00,
2013-01-29 04:17:00,43.9,38.7,30.35,NNE,18,2.0,3.0,82,0.00,,,0.00,meteohub,2013-01-29 12:17:00,
2013-01-29 04:22:00,43.9,38.5,30.35,NNE,17,0.0,3.0,81,0.00,,,0.00,meteohub,2013-01-29 12:22:00,
2013-01-29 04:27:00,43.5,38.1,30.35,NNE,17,0.0,3.0,81,0.00,,,0.00,meteohub,2013-01-29 12:27:00,
2013-01-29 04:32:00,43.2,37.8,30.35,NNE,19,2.0,3.0,81,0.00,,,0.00,meteohub,2013-01-29 12:32:00,
2013-01-29 04:38:00,43.0,38.1,30.36,NNE,17,0.0,2.0,83,0.00,,,0.00,meteohub,2013-01-29 12:38:00,
2013-01-29 04:43:00,42.8,37.9,30.36,NNE,18,2.0,3.0,83,0.00,,,0.00,meteohub,2013-01-29 12:43:00,
2013-01-29 04:48:00,42.6,37.8,30.37,NNE,21,3.0,3.0,83,0.00,,,0.00,meteohub,2013-01-29 12:48:00,
2013-01-29 04:53:00,42.6,37.8,30.37,NNE,21,3.0,4.0,83,0.00,,,0.00,meteohub,2013-01-29 12:53:00,
2013-01-29 04:58:00,42.6,37.8,30.37,NNE,20,3.0,4.0,83,0.00,,,0.00,meteohub,2013-01-29 12:58:00,
2013-01-29 05:03:00,42.8,37.9,30.37,NNE,24,2.0,3.0,83,0.00,,,0.00,meteohub,2013-01-29 13:03:00,
2013-01-29 05:08:00,42.8,37.9,30.37,NNE,22,2.0,3.0,83,0.00,,,0.00,meteohub,2013-01-29 13:08:00,
2013-01-29 05:13:00,43.0,38.1,30.37,NNE,21,0.0,3.0,83,0.00,,,0.00,meteohub,2013-01-29 13:13:00,
2013-01-29 05:18:00,43.0,37.9,30.37,NNE,21,2.0,3.0,82,0.00,,,0.00,meteohub,2013-01-29 13:18:00,
2013-01-29 05:23:00,43.0,38.1,30.37,NNE,22,0.0,3.0,83,0.00,,,0.00,meteohub,2013-01-29 13:23:00,
2013-01-29 05:28:00,43.0,38.1,30.37,NNE,21,1.0,3.0,83,0.00,,,0.00,meteohub,2013-01-29 13:28:00,
2013-01-29 05:33:00,43.0,38.1,30.37,NNE,21,1.0,4.0,83,0.00,,,0.00,meteohub,2013-01-29 13:33:00,
2013-01-29 05:38:00,42.8,37.8,30.36,NNE,21,2.0,4.0,82,0.00,,,0.00,meteohub,2013-01-29 13:38:00,
2013-01-29 05:43:00,43.0,38.1,30.36,NNE,21,0.0,4.0,83,0.00,,,0.00,meteohub,2013-01-29 13:43:00,
2013-01-29 05:48:00,43.0,38.1,30.37,NNE,21,0.0,3.0,83,0.00,,,0.00,meteohub,2013-01-29 13:48:00,
2013-01-29 05:53:00,42.6,37.6,30.36,NNE,22,1.0,2.0,82,0.00,,,0.00,meteohub,2013-01-29 13:53:00,
2013-01-29 05:58:00,42.4,37.6,30.37,NNE,21,1.0,2.0,83,0.00,,,0.00,meteohub,2013-01-29 13:58:00,
2013-01-29 06:03:00,42.3,37.4,30.37,NNE,22,0.0,2.0,83,0.00,,,0.00,meteohub,2013-01-29 14:03:00,
2013-01-29 06:08:00,42.1,37.6,30.37,NNE,22,0.0,2.0,84,0.00,,,0.00,meteohub,2013-01-29 14:08:00,
2013-01-29 06:13:00,42.3,37.8,30.37,NNE,21,0.0,2.0,84,0.00,,,0.00,meteohub,2013-01-29 14:13:00,
2013-01-29 06:18:00,42.3,37.8,30.37,NNE,20,0.0,1.0,84,0.00,,,0.00,meteohub,2013-01-29 14:18:00,
2013-01-29 06:24:00,41.9,37.4,30.38,West,274,1.0,1.0,84,0.00,,,0.00,meteohub,2013-01-29 14:24:00,
2013-01-29 06:29:00,42.1,37.9,30.38,West,274,0.0,3.0,85,0.00,,,0.00,meteohub,2013-01-29 14:29:00,
2013-01-29 06:34:00,42.4,37.9,30.38,West,274,0.0,3.0,84,0.00,,,0.00,meteohub,2013-01-29 14:34:00,
2013-01-29 06:39:00,42.4,37.9,30.38,West,274,0.0,3.0,84,0.00,,,0.00,meteohub,2013-01-29 14:39:00,
2013-01-29 06:44:00,42.6,38.1,30.38,West,274,0.0,2.0,84,0.00,,,0.00,meteohub,2013-01-29 14:44:00,
2013-01-29 06:49:00,42.8,38.3,30.38,West,274,0.0,1.0,84,0.00,,,0.00,meteohub,2013-01-29 14:49:00,
2013-01-29 06:54:00,43.2,39.0,30.38,West,274,1.0,1.0,85,0.00,,,0.00,meteohub,2013-01-29 14:54:00,
2013-01-29 06:59:00,43.9,39.4,30.38,West,273,1.0,2.0,84,0.00,,,0.00,meteohub,2013-01-29 14:59:00,
2013-01-29 07:04:00,44.2,39.4,30.38,West,273,0.0,2.0,83,0.00,,,0.00,meteohub,2013-01-29 15:04:00,
2013-01-29 07:09:00,44.2,38.8,30.38,West,276,1.0,3.0,81,0.00,,,0.00,meteohub,2013-01-29 15:09:00,
2013-01-29 07:14:00,43.5,38.5,30.39,West,274,1.0,3.0,82,0.00,,,0.00,meteohub,2013-01-29 15:14:00,
2013-01-29 07:19:00,42.4,37.4,30.39,West,279,2.0,3.0,82,0.00,,,0.00,meteohub,2013-01-29 15:19:00,
2013-01-29 07:24:00,42.3,38.1,30.38,West,278,0.0,3.0,85,0.00,,,0.00,meteohub,2013-01-29 15:24:00,
2013-01-29 07:29:00,42.4,38.3,30.39,West,280,0.0,3.0,85,0.00,,,0.00,meteohub,2013-01-29 15:29:00,
2013-01-29 07:34:00,42.6,38.5,30.39,West,280,0.0,3.0,85,0.00,,,0.00,meteohub,2013-01-29 15:34:00,
2013-01-29 07:39:00,42.6,38.1,30.39,West,280,1.0,2.0,84,0.00,,,0.00,meteohub,2013-01-29 15:39:00,
2013-01-29 07:44:00,42.6,38.1,30.39,West,281,0.0,2.0,84,0.00,,,0.00,meteohub,2013-01-29 15:44:00,
2013-01-29 07:49:00,42.8,38.3,30.39,SW,221,2.0,2.0,84,0.00,,,0.00,meteohub,2013-01-29 15:49:00,
2013-01-29 07:54:00,43.0,38.5,30.39,SSW,206,2.0,2.0,84,0.00,,,0.00,meteohub,2013-01-29 15:54:00,
2013-01-29 07:59:00,43.0,38.5,30.39,SSW,203,1.0,3.0,84,0.00,,,0.00,meteohub,2013-01-29 15:59:00,
2013-01-29 08:04:00,43.0,38.5,30.39,SSE,166,0.0,3.0,84,0.00,,,0.00,meteohub,2013-01-29 16:04:00,
2013-01-29 08:10:00,43.2,38.7,30.39,SSE,166,1.0,3.0,84,0.00,,,0.00,meteohub,2013-01-29 16:10:00,
2013-01-29 08:15:00,43.2,38.7,30.39,SSE,168,0.0,4.0,84,0.00,,,0.00,meteohub,2013-01-29 16:15:00,
2013-01-29 08:20:00,43.3,38.8,30.39,SSE,166,2.0,4.0,84,0.00,,,0.00,meteohub,2013-01-29 16:20:00,
2013-01-29 08:25:00,43.3,38.8,30.40,SSE,166,0.0,2.0,84,0.00,,,0.00,meteohub,2013-01-29 16:25:00,
2013-01-29 08:30:00,43.5,39.0,30.40,SSE,168,0.0,2.0,84,0.00,,,0.00,meteohub,2013-01-29 16:30:00,
2013-01-29 08:35:00,43.7,39.2,30.40,South,169,0.0,2.0,84,0.00,,,0.00,meteohub,2013-01-29 16:35:00,
2013-01-29 08:40:00,44.1,39.6,30.40,South,171,0.0,2.0,84,0.00,,,0.00,meteohub,2013-01-29 16:40:00,
2013-01-29 08:45:00,44.4,39.6,30.40,SSE,168,0.0,1.0,83,0.00,,,0.00,meteohub,2013-01-29 16:45:00,
2013-01-29 08:50:00,44.8,39.9,30.40,SSE,168,0.0,2.0,83,0.00,,,0.00,meteohub,2013-01-29 16:50:00,
2013-01-29 08:55:00,45.3,40.5,30.40,SSE,167,0.0,2.0,83,0.00,,,0.00,meteohub,2013-01-29 16:55:00,
2013-01-29 09:00:00,46.0,40.3,30.40,SSE,166,1.0,2.0,80,0.00,,,0.00,meteohub,2013-01-29 17:00:00,
2013-01-29 09:05:00,46.8,40.6,30.40,SE,131,2.0,3.0,79,0.00,,,0.00,meteohub,2013-01-29 17:05:00,
2013-01-29 09:10:00,47.1,41.0,30.40,SE,131,0.0,3.0,79,0.00,,,0.00,meteohub,2013-01-29 17:10:00,
2013-01-29 09:15:00,47.8,41.0,30.40,SE,132,0.0,3.0,77,0.00,,,0.00,meteohub,2013-01-29 17:15:00,
2013-01-29 09:20:00,48.0,40.5,30.40,East,83,0.0,3.0,75,0.00,,,0.00,meteohub,2013-01-29 17:20:00,
2013-01-29 09:26:00,48.0,40.8,30.40,NE,45,1.0,4.0,76,0.00,,,0.00,meteohub,2013-01-29 17:26:00,
2013-01-29 09:31:00,48.0,40.5,30.40,NW,322,3.0,5.0,75,0.00,,,0.00,meteohub,2013-01-29 17:31:00,
2013-01-29 09:36:00,48.0,40.1,30.40,North,359,4.0,5.0,74,0.00,,,0.00,meteohub,2013-01-29 17:36:00,
2013-01-29 09:41:00,48.4,40.5,30.40,North,8,5.0,5.0,74,0.00,,,0.00,meteohub,2013-01-29 17:41:00,
2013-01-29 09:46:00,48.4,40.1,30.40,NNW,347,3.0,5.0,73,0.00,,,0.00,meteohub,2013-01-29 17:46:00,
2013-01-29 09:51:00,48.6,40.3,30.41,North,4,4.0,6.0,73,0.00,,,0.00,meteohub,2013-01-29 17:51:00,
2013-01-29 09:56:00,48.6,39.6,30.41,NW,314,5.0,8.0,71,0.00,,,0.00,meteohub,2013-01-29 17:56:00,
2013-01-29 10:01:00,48.7,40.1,30.41,North,354,6.0,8.0,72,0.00,,,0.00,meteohub,2013-01-29 18:01:00,
2013-01-29 10:06:00,48.7,40.1,30.41,NW,321,4.0,10.0,72,0.00,,,0.00,meteohub,2013-01-29 18:06:00,
2013-01-29 10:11:00,48.9,39.9,30.41,North,349,7.0,10.0,71,0.00,,,0.00,meteohub,2013-01-29 18:11:00,
2013-01-29 10:16:00,49.3,39.9,30.42,NNW,341,4.0,10.0,70,0.00,,,0.00,meteohub,2013-01-29 18:16:00,
2013-01-29 10:21:00,49.5,40.1,30.41,North,359,9.0,10.0,70,0.00,,,0.00,meteohub,2013-01-29 18:21:00,
2013-01-29 10:26:00,49.5,40.1,30.41,NNW,339,8.0,10.0,70,0.00,,,0.00,meteohub,2013-01-29 18:26:00,
2013-01-29 10:31:00,49.5,40.1,30.41,NNW,336,5.0,10.0,70,0.00,,,0.00,meteohub,2013-01-29 18:31:00,
2013-01-29 10:36:00,49.5,40.1,30.41,NW,320,9.0,10.0,70,0.00,,,0.00,meteohub,2013-01-29 18:36:00,
2013-01-29 10:41:00,49.5,39.7,30.41,NNW,327,7.0,10.0,69,0.00,,,0.00,meteohub,2013-01-29 18:41:00,
2013-01-29 10:46:00,49.5,40.1,30.41,NNW,331,5.0,11.0,70,0.00,,,0.00,meteohub,2013-01-29 18:46:00,
2013-01-29 10:51:00,49.6,39.9,30.41,NW,319,4.0,12.0,69,0.00,,,0.00,meteohub,2013-01-29 18:51:00,
2013-01-29 10:56:00,50.0,40.3,30.41,NNW,340,7.0,12.0,69,0.00,,,0.00,meteohub,2013-01-29 18:56:00,
2013-01-29 11:01:00,50.0,39.9,30.41,NW,313,4.0,10.0,68,0.00,,,0.00,meteohub,2013-01-29 19:01:00,
2013-01-29 11:07:00,50.4,40.6,30.41,NNW,339,8.0,10.0,69,0.00,,,0.00,meteohub,2013-01-29 19:07:00,
2013-01-29 11:12:00,50.4,40.3,30.42,North,4,8.0,10.0,68,0.00,,,0.00,meteohub,2013-01-29 19:12:00,
2013-01-29 11:17:00,50.5,40.8,30.41,NNE,26,10.0,10.0,69,0.00,,,0.00,meteohub,2013-01-29 19:17:00,
2013-01-29 11:22:00,50.5,40.5,30.41,North,9,3.0,10.0,68,0.00,,,0.00,meteohub,2013-01-29 19:22:00,
2013-01-29 11:27:00,50.7,40.5,30.41,North,359,4.0,10.0,68,0.00,,,0.00,meteohub,2013-01-29 19:27:00,
2013-01-29 11:32:00,50.9,40.3,30.41,North,359,7.0,10.0,67,0.00,,,0.00,meteohub,2013-01-29 19:32:00,
2013-01-29 11:37:00,50.7,40.1,30.41,North,359,5.0,9.0,67,0.00,,,0.00,meteohub,2013-01-29 19:37:00,
2013-01-29 11:42:00,50.7,39.7,30.41,North,354,9.0,11.0,66,0.00,,,0.00,meteohub,2013-01-29 19:42:00,
2013-01-29 11:47:00,51.1,40.1,30.41,NNW,337,9.0,11.0,66,0.00,,,0.00,meteohub,2013-01-29 19:47:00,
2013-01-29 11:52:00,51.1,40.1,30.40,North,359,7.0,12.0,66,0.00,,,0.00,meteohub,2013-01-29 19:52:00,
2013-01-29 11:57:00,51.3,40.3,30.40,NNW,347,5.0,12.0,66,0.00,,,0.00,meteohub,2013-01-29 19:57:00,
2013-01-29 11:58:00,51.4,40.5,30.40,NNW,330,5.0,12.0,66,0.00,,,0.00,meteohub,2013-01-29 19:58:00,
2013-01-29 12:03:00,51.6,40.3,30.40,NNW,348,5.0,12.0,65,0.00,,,0.00,meteohub,2013-01-29 20:03:00,
2013-01-29 12:08:00,52.0,40.1,30.40,North,10,5.0,10.0,64,0.00,,,0.00,meteohub,2013-01-29 20:08:00,
2013-01-29 12:13:00,52.2,40.3,30.39,North,359,2.0,10.0,64,0.00,,,0.00,meteohub,2013-01-29 20:13:00,
2013-01-29 12:18:00,52.2,40.3,30.38,NNW,328,9.0,10.0,64,0.00,,,0.00,meteohub,2013-01-29 20:18:00,
2013-01-29 12:24:00,52.3,40.1,30.38,NW,315,6.0,9.0,63,0.00,,,0.00,meteohub,2013-01-29 20:24:00,
2013-01-29 12:29:00,52.5,39.9,30.38,NNW,345,6.0,9.0,62,0.00,,,0.00,meteohub,2013-01-29 20:29:00,
2013-01-29 12:34:00,52.9,40.3,30.38,North,359,6.0,10.0,62,0.00,,,0.00,meteohub,2013-01-29 20:34:00,
2013-01-29 12:39:00,52.9,40.3,30.38,North,349,8.0,10.0,62,0.00,,,0.00,meteohub,2013-01-29 20:39:00,
2013-01-29 12:44:00,53.2,40.1,30.38,North,359,6.0,10.0,61,0.00,,,0.00,meteohub,2013-01-29 20:44:00,
2013-01-29 12:49:00,53.4,40.3,30.37,North,359,4.0,10.0,61,0.00,,,0.00,meteohub,2013-01-29 20:49:00,
2013-01-29 12:54:00,53.4,39.9,30.37,NNW,335,4.0,10.0,60,0.00,,,0.00,meteohub,2013-01-29 20:54:00,
2013-01-29 12:59:00,53.8,40.3,30.37,NNW,343,4.0,10.0,60,0.00,,,0.00,meteohub,2013-01-29 20:59:00,
2013-01-29 13:04:00,54.1,40.1,30.37,NNW,337,3.0,9.0,59,0.00,,,0.00,meteohub,2013-01-29 21:04:00,
2013-01-29 13:09:00,54.7,40.6,30.37,WNW,285,4.0,9.0,59,0.00,,,0.00,meteohub,2013-01-29 21:09:00,
2013-01-29 13:14:00,54.9,40.8,30.37,NW,320,3.0,8.0,59,0.00,,,0.00,meteohub,2013-01-29 21:14:00,
2013-01-29 13:19:00,54.9,40.3,30.36,NE,37,1.0,8.0,58,0.00,,,0.00,meteohub,2013-01-29 21:19:00,
2013-01-29 13:24:00,54.9,40.3,30.36,NW,320,0.0,8.0,58,0.00,,,0.00,meteohub,2013-01-29 21:24:00,
2013-01-29 13:29:00,55.4,40.5,30.36,North,354,3.0,6.0,57,0.00,,,0.00,meteohub,2013-01-29 21:29:00,
2013-01-29 13:35:00,55.9,40.5,30.35,North,354,1.0,6.0,56,0.00,,,0.00,meteohub,2013-01-29 21:35:00,
2013-01-29 13:40:00,56.1,40.6,30.35,NNW,342,6.0,6.0,56,0.00,,,0.00,meteohub,2013-01-29 21:40:00,
2013-01-29 13:45:00,56.5,41.0,30.35,WNW,292,5.0,6.0,56,0.00,,,0.00,meteohub,2013-01-29 21:45:00,
2013-01-29 13:50:00,56.3,42.1,30.35,WSW,251,2.0,10.0,59,0.00,,,0.00,meteohub,2013-01-29 21:50:00,
2013-01-29 13:55:00,56.1,42.4,30.35,West,264,7.0,10.0,60,0.00,,,0.00,meteohub,2013-01-29 21:55:00,
2013-01-29 14:00:00,56.1,41.9,30.35,WSW,255,5.0,10.0,59,0.00,,,0.00,meteohub,2013-01-29 22:00:00,
2013-01-29 14:05:00,55.9,41.9,30.34,WSW,239,4.0,7.0,59,0.00,,,0.00,meteohub,2013-01-29 22:05:00,
2013-01-29 14:10:00,55.6,41.9,30.34,West,264,4.0,7.0,60,0.00,,,0.00,meteohub,2013-01-29 22:10:00,
2013-01-29 14:15:00,55.9,42.3,30.34,SW,220,3.0,8.0,60,0.00,,,0.00,meteohub,2013-01-29 22:15:00,
2013-01-29 14:20:00,55.9,42.3,30.34,West,269,7.0,8.0,60,0.00,,,0.00,meteohub,2013-01-29 22:20:00,
2013-01-29 14:25:00,56.7,42.1,30.33,WNW,285,7.0,8.0,58,0.00,,,0.00,meteohub,2013-01-29 22:25:00,
2013-01-29 14:30:00,56.7,41.5,30.33,West,281,6.0,10.0,57,0.00,,,0.00,meteohub,2013-01-29 22:30:00,
2013-01-29 14:35:00,56.5,41.4,30.33,WNW,283,3.0,10.0,57,0.00,,,0.00,meteohub,2013-01-29 22:35:00,
2013-01-29 14:40:00,56.3,41.7,30.33,West,267,5.0,10.0,58,0.00,,,0.00,meteohub,2013-01-29 22:40:00,
2013-01-29 14:45:00,56.5,41.9,30.34,SW,229,2.0,9.0,58,0.00,,,0.00,meteohub,2013-01-29 22:45:00,
2013-01-29 14:50:00,56.8,42.3,30.33,WSW,253,1.0,7.0,58,0.00,,,0.00,meteohub,2013-01-29 22:50:00,
2013-01-29 14:55:00,56.7,43.0,30.34,SW,231,3.0,6.0,60,0.00,,,0.00,meteohub,2013-01-29 22:55:00,
2013-01-29 15:00:00,56.7,43.0,30.34,SW,214,4.0,6.0,60,0.00,,,0.00,meteohub,2013-01-29 23:00:00,
2013-01-29 15:05:00,56.7,43.3,30.33,SSW,195,3.0,7.0,61,0.00,,,0.00,meteohub,2013-01-29 23:05:00,
2013-01-29 15:10:00,56.7,43.3,30.33,SW,223,4.0,7.0,61,0.00,,,0.00,meteohub,2013-01-29 23:10:00,
2013-01-29 15:15:00,56.5,43.2,30.34,SSW,201,5.0,7.0,61,0.00,,,0.00,meteohub,2013-01-29 23:15:00,
2013-01-29 15:20:00,56.5,42.8,30.34,WSW,251,4.0,7.0,60,0.00,,,0.00,meteohub,2013-01-29 23:20:00,
2013-01-29 15:26:00,56.3,43.0,30.33,WSW,246,7.0,7.0,61,0.00,,,0.00,meteohub,2013-01-29 23:26:00,
2013-01-29 15:31:00,56.5,43.7,30.33,North,359,4.0,7.0,62,0.00,,,0.00,meteohub,2013-01-29 23:31:00,
2013-01-29 15:36:00,56.5,43.2,30.33,SW,235,4.0,7.0,61,0.00,,,0.00,meteohub,2013-01-29 23:36:00,
2013-01-29 15:41:00,56.5,43.2,30.33,SW,225,2.0,8.0,61,0.00,,,0.00,meteohub,2013-01-29 23:41:00,
2013-01-29 15:46:00,57.0,43.3,30.33,SW,226,2.0,8.0,60,0.00,,,0.00,meteohub,2013-01-29 23:46:00,
2013-01-29 15:51:00,57.4,43.2,30.32,WSW,241,5.0,5.0,59,0.00,,,0.00,meteohub,2013-01-29 23:51:00,
2013-01-29 15:56:00,57.0,43.3,30.33,SW,226,4.0,6.0,60,0.00,,,0.00,meteohub,2013-01-29 23:56:00,
2013-01-29 16:01:00,56.8,43.5,30.33,South,174,6.0,7.0,61,0.00,,,0.00,meteohub,2013-01-30 00:01:00,
2013-01-29 16:06:00,56.3,43.0,30.33,SSW,195,6.0,8.0,61,0.00,,,0.00,meteohub,2013-01-30 00:06:00,
2013-01-29 16:11:00,56.1,43.3,30.33,SSW,201,1.0,8.0,62,0.00,,,0.00,meteohub,2013-01-30 00:11:00,
2013-01-29 16:16:00,56.1,43.7,30.32,North,359,3.0,8.0,63,0.00,,,0.00,meteohub,2013-01-30 00:16:00,
2013-01-29 16:21:00,56.3,43.5,30.33,South,187,3.0,8.0,62,0.00,,,0.00,meteohub,2013-01-30 00:21:00,
2013-01-29 16:26:00,55.9,43.9,30.32,South,172,4.0,8.0,64,0.00,,,0.00,meteohub,2013-01-30 00:26:00,
2013-01-29 16:31:00,55.8,43.7,30.33,SSE,168,0.0,7.0,64,0.00,,,0.00,meteohub,2013-01-30 00:31:00,
2013-01-29 16:36:00,55.6,42.3,30.33,SE,140,2.0,7.0,61,0.00,,,0.00,meteohub,2013-01-30 00:36:00,
2013-01-29 16:41:00,55.6,43.5,30.33,SE,145,4.0,7.0,64,0.00,,,0.00,meteohub,2013-01-30 00:41:00,
2013-01-29 16:47:00,55.4,43.0,30.33,SE,141,5.0,7.0,63,0.00,,,0.00,meteohub,2013-01-30 00:47:00,
2013-01-29 16:52:00,55.2,43.3,30.33,SE,141,3.0,7.0,64,0.00,,,0.00,meteohub,2013-01-30 00:52:00,
2013-01-29 16:57:00,55.4,43.3,30.33,SE,141,2.0,6.0,64,0.00,,,0.00,meteohub,2013-01-30 00:57:00,
2013-01-29 17:02:00,55.6,43.2,30.32,SSE,162,5.0,6.0,63,0.00,,,0.00,meteohub,2013-01-30 01:02:00,
2013-01-29 17:07:00,55.2,42.4,30.33,SSE,158,5.0,6.0,62,0.00,,,0.00,meteohub,2013-01-30 01:07:00,
2013-01-29 17:12:00,55.0,43.2,30.32,South,172,0.0,8.0,64,0.00,,,0.00,meteohub,2013-01-30 01:12:00,
2013-01-29 17:17:00,55.2,43.3,30.32,South,172,0.0,8.0,64,0.00,,,0.00,meteohub,2013-01-30 01:17:00,
2013-01-29 17:22:00,55.0,43.5,30.33,South,173,0.0,8.0,65,0.00,,,0.00,meteohub,2013-01-30 01:22:00,
2013-01-29 17:27:00,55.0,43.5,30.33,South,173,0.0,4.0,65,0.00,,,0.00,meteohub,2013-01-30 01:27:00,
2013-01-29 17:32:00,54.9,43.3,30.32,South,172,1.0,3.0,65,0.00,,,0.00,meteohub,2013-01-30 01:32:00,
2013-01-29 17:37:00,54.7,43.2,30.33,South,172,0.0,3.0,65,0.00,,,0.00,meteohub,2013-01-30 01:37:00,
2013-01-29 17:42:00,54.5,43.3,30.33,South,174,0.0,3.0,66,0.00,,,0.00,meteohub,2013-01-30 01:42:00,
2013-01-29 17:47:00,54.3,43.5,30.33,South,174,0.0,3.0,67,0.00,,,0.00,meteohub,2013-01-30 01:47:00,
2013-01-29 17:52:00,54.3,43.5,30.33,South,172,0.0,2.0,67,0.00,,,0.00,meteohub,2013-01-30 01:52:00,
2013-01-29 17:57:00,54.1,43.3,30.33,South,173,0.0,1.0,67,0.00,,,0.00,meteohub,2013-01-30 01:57:00,
2013-01-29 18:02:00,54.1,43.3,30.33,South,174,0.0,1.0,67,0.00,,,0.00,meteohub,2013-01-30 02:02:00,
2013-01-29 18:07:00,54.1,43.9,30.33,South,172,0.0,0.0,68,0.00,,,0.00,meteohub,2013-01-30 02:07:00,
2013-01-29 18:12:00,54.3,44.1,30.33,South,174,0.0,3.0,68,0.00,,,0.00,meteohub,2013-01-30 02:12:00,
2013-01-29 18:17:00,54.3,44.4,30.33,South,183,1.0,4.0,69,0.00,,,0.00,meteohub,2013-01-30 02:17:00,
2013-01-29 18:22:00,54.1,44.2,30.33,South,183,0.0,4.0,69,0.00,,,0.00,meteohub,2013-01-30 02:22:00,
2013-01-29 18:27:00,54.1,44.2,30.34,South,183,0.0,4.0,69,0.00,,,0.00,meteohub,2013-01-30 02:27:00,
2013-01-29 18:32:00,54.0,44.1,30.34,South,183,0.0,4.0,69,0.00,,,0.00,meteohub,2013-01-30 02:32:00,
2013-01-29 18:37:00,53.6,44.1,30.34,South,183,0.0,2.0,70,0.00,,,0.00,meteohub,2013-01-30 02:37:00,
2013-01-29 18:42:00,53.2,43.7,30.34,South,183,0.0,0.0,70,0.00,,,0.00,meteohub,2013-01-30 02:42:00,
2013-01-29 18:47:00,53.1,43.9,30.35,South,183,0.0,0.0,71,0.00,,,0.00,meteohub,2013-01-30 02:47:00,
2013-01-29 18:52:00,52.9,43.7,30.34,South,183,0.0,0.0,71,0.00,,,0.00,meteohub,2013-01-30 02:52:00,
2013-01-29 18:57:00,52.7,43.5,30.34,South,184,0.0,2.0,71,0.00,,,0.00,meteohub,2013-01-30 02:57:00,
2013-01-29 19:02:00,52.5,43.7,30.35,South,183,0.0,2.0,72,0.00,,,0.00,meteohub,2013-01-30 03:02:00,
2013-01-29 19:07:00,52.2,43.3,30.35,South,182,0.0,2.0,72,0.00,,,0.00,meteohub,2013-01-30 03:07:00,
2013-01-29 19:13:00,52.0,43.5,30.35,South,182,0.0,1.0,73,0.00,,,0.00,meteohub,2013-01-30 03:13:00,
2013-01-29 19:18:00,52.0,43.5,30.35,South,184,0.0,1.0,73,0.00,,,0.00,meteohub,2013-01-30 03:18:00,
2013-01-29 19:23:00,51.6,43.5,30.34,South,183,0.0,1.0,74,0.00,,,0.00,meteohub,2013-01-30 03:23:00,
2013-01-29 19:28:00,51.4,43.5,30.34,South,183,1.0,0.0,74,0.00,,,0.00,meteohub,2013-01-30 03:28:00,
2013-01-29 19:33:00,51.4,43.7,30.34,South,184,1.0,1.0,75,0.00,,,0.00,meteohub,2013-01-30 03:33:00,
2013-01-29 19:38:00,51.1,43.5,30.34,SE,141,3.0,3.0,75,0.00,,,0.00,meteohub,2013-01-30 03:38:00,
2013-01-29 19:43:00,50.7,43.2,30.34,SE,129,1.0,4.0,75,0.00,,,0.00,meteohub,2013-01-30 03:43:00,
2013-01-29 19:48:00,50.7,43.5,30.35,SE,128,0.0,4.0,76,0.00,,,0.00,meteohub,2013-01-30 03:48:00,
2013-01-29 19:53:00,50.7,43.2,30.35,SE,130,0.0,4.0,75,0.00,,,0.00,meteohub,2013-01-30 03:53:00,
2013-01-29 19:58:00,50.5,43.3,30.35,SE,128,0.0,2.0,76,0.00,,,0.00,meteohub,2013-01-30 03:58:00,
2013-01-29 20:03:00,50.5,43.3,30.35,SE,127,0.0,0.0,76,0.00,,,0.00,meteohub,2013-01-30 04:03:00,
2013-01-29 20:08:00,50.5,43.5,30.35,SE,129,0.0,0.0,77,0.00,,,0.00,meteohub,2013-01-30 04:08:00,
2013-01-29 20:13:00,50.5,43.3,30.35,SE,129,1.0,0.0,76,0.00,,,0.00,meteohub,2013-01-30 04:13:00,
2013-01-29 20:18:00,50.5,43.3,30.35,SE,127,2.0,2.0,76,0.00,,,0.00,meteohub,2013-01-30 04:18:00,
2013-01-29 20:23:00,50.5,43.3,30.35,SE,128,0.0,3.0,76,0.00,,,0.00,meteohub,2013-01-30 04:23:00,
2013-01-29 20:28:00,50.5,43.0,30.35,SE,127,0.0,3.0,75,0.00,,,0.00,meteohub,2013-01-30 04:28:00,
2013-01-29 20:33:00,50.4,43.2,30.35,SE,127,2.0,3.0,76,0.00,,,0.00,meteohub,2013-01-30 04:33:00,
2013-01-29 20:38:00,50.2,43.0,30.35,SE,125,0.0,3.0,76,0.00,,,0.00,meteohub,2013-01-30 04:38:00,
2013-01-29 20:43:00,50.2,43.0,30.35,SE,127,0.0,3.0,76,0.00,,,0.00,meteohub,2013-01-30 04:43:00,
2013-01-29 20:48:00,50.2,43.0,30.35,SE,127,1.0,3.0,76,0.00,,,0.00,meteohub,2013-01-30 04:48:00,
2013-01-29 20:53:00,50.0,42.8,30.35,SE,127,1.0,3.0,76,0.00,,,0.00,meteohub,2013-01-30 04:53:00,
2013-01-29 20:58:00,50.7,43.5,30.35,East,79,2.0,2.0,76,0.00,,,0.00,meteohub,2013-01-30 04:58:00,
2013-01-29 21:02:00,50.7,43.2,30.35,East,80,2.0,5.0,75,0.00,,,0.00,meteohub,2013-01-30 05:02:00,
2013-01-29 21:03:00,50.7,43.2,30.35,East,79,1.0,5.0,75,0.00,,,0.00,meteohub,2013-01-30 05:03:00,
2013-01-29 21:04:00,50.5,43.0,30.35,East,79,0.0,5.0,75,0.00,,,0.00,meteohub,2013-01-30 05:04:00,
2013-01-29 21:07:00,50.5,43.0,30.35,East,80,1.0,5.0,75,0.00,,,0.00,meteohub,2013-01-30 05:07:00,
2013-01-29 21:12:00,50.7,43.2,30.35,East,79,3.0,5.0,75,0.00,,,0.00,meteohub,2013-01-30 05:12:00,
2013-01-29 21:17:00,51.3,43.5,30.35,NE,45,4.0,5.0,75,0.00,,,0.00,meteohub,2013-01-30 05:17:00,
2013-01-29 21:22:00,51.6,43.5,30.34,North,4,3.0,6.0,74,0.00,,,0.00,meteohub,2013-01-30 05:22:00,
2013-01-29 21:27:00,52.0,43.9,30.35,North,10,1.0,6.0,74,0.00,,,0.00,meteohub,2013-01-30 05:27:00,
2013-01-29 21:32:00,52.2,43.7,30.35,NNE,12,3.0,6.0,73,0.00,,,0.00,meteohub,2013-01-30 05:32:00,
2013-01-29 21:37:00,52.5,43.7,30.35,North,11,0.0,5.0,72,0.00,,,0.00,meteohub,2013-01-30 05:37:00,
2013-01-29 21:42:00,52.3,43.5,30.35,NNE,12,0.0,4.0,72,0.00,,,0.00,meteohub,2013-01-30 05:42:00,
2013-01-29 21:47:00,52.2,43.3,30.35,North,10,1.0,4.0,72,0.00,,,0.00,meteohub,2013-01-30 05:47:00,
2013-01-29 21:52:00,52.0,43.2,30.35,North,10,0.0,3.0,72,0.00,,,0.00,meteohub,2013-01-30 05:52:00,
2013-01-29 21:57:00,51.6,43.5,30.34,North,9,3.0,3.0,74,0.00,,,0.00,meteohub,2013-01-30 05:57:00,
2013-01-29 22:02:00,51.6,43.5,30.35,NNE,13,6.0,6.0,74,0.00,,,0.00,meteohub,2013-01-30 06:02:00,
2013-01-29 22:07:00,51.6,43.5,30.34,North,359,4.0,6.0,74,0.00,,,0.00,meteohub,2013-01-30 06:07:00,
2013-01-29 22:12:00,51.6,43.5,30.34,North,9,4.0,6.0,74,0.00,,,0.00,meteohub,2013-01-30 06:12:00,
2013-01-29 22:17:00,51.6,43.5,30.34,NNE,27,3.0,6.0,74,0.00,,,0.00,meteohub,2013-01-30 06:17:00,
2013-01-29 22:22:00,51.4,43.5,30.34,NNE,15,3.0,6.0,74,0.00,,,0.00,meteohub,2013-01-30 06:22:00,
2013-01-29 22:27:00,51.4,43.7,30.35,NNE,16,3.0,6.0,75,0.00,,,0.00,meteohub,2013-01-30 06:27:00,
2013-01-29 22:33:00,51.4,43.7,30.35,North,359,2.0,6.0,75,0.00,,,0.00,meteohub,2013-01-30 06:33:00,
2013-01-29 22:38:00,51.3,43.5,30.35,NNW,346,3.0,5.0,75,0.00,,,0.00,meteohub,2013-01-30 06:38:00,
2013-01-29 22:43:00,51.1,43.5,30.35,NNW,348,0.0,5.0,75,0.00,,,0.00,meteohub,2013-01-30 06:43:00,
2013-01-29 22:48:00,50.9,43.3,30.35,NNW,347,0.0,5.0,75,0.00,,,0.00,meteohub,2013-01-30 06:48:00,
2013-01-29 22:53:00,50.5,43.3,30.35,NNW,347,0.0,4.0,76,0.00,,,0.00,meteohub,2013-01-30 06:53:00,
2013-01-29 22:58:00,50.4,43.2,30.35,North,359,0.0,1.0,76,0.00,,,0.00,meteohub,2013-01-30 06:58:00,
2013-01-29 23:03:00,50.4,43.3,30.35,North,349,0.0,1.0,77,0.00,,,0.00,meteohub,2013-01-30 07:03:00,
2013-01-29 23:08:00,50.4,43.3,30.35,NNW,347,2.0,2.0,77,0.00,,,0.00,meteohub,2013-01-30 07:08:00,
2013-01-29 23:13:00,50.2,43.3,30.35,NNW,348,1.0,3.0,77,0.00,,,0.00,meteohub,2013-01-30 07:13:00,
2013-01-29 23:18:00,50.2,43.5,30.35,NNW,348,1.0,3.0,78,0.00,,,0.00,meteohub,2013-01-30 07:18:00,
2013-01-29 23:23:00,50.2,43.5,30.35,NNW,345,0.0,3.0,78,0.00,,,0.00,meteohub,2013-01-30 07:23:00,
2013-01-29 23:28:00,50.0,43.3,30.35,North,349,0.0,3.0,78,0.00,,,0.00,meteohub,2013-01-30 07:28:00,
2013-01-29 23:34:00,49.8,43.2,30.35,NNW,348,0.0,3.0,78,0.00,,,0.00,meteohub,2013-01-30 07:34:00,
2013-01-29 23:39:00,49.6,43.0,30.35,NNW,347,2.0,2.0,78,0.00,,,0.00,meteohub,2013-01-30 07:39:00,
2013-01-29 23:44:00,49.5,42.8,30.35,NNW,346,3.0,3.0,78,0.00,,,0.00,meteohub,2013-01-30 07:44:00,
2013-01-29 23:49:00,49.5,43.2,30.35,NNW,347,1.0,4.0,79,0.00,,,0.00,meteohub,2013-01-30 07:49:00,
2013-01-29 23:54:00,49.3,43.0,30.35,NNW,348,0.0,4.0,79,0.00,,,0.00,meteohub,2013-01-30 07:54:00,
2013-01-29 23:59:00,48.9,42.4,30.35,NNW,337,1.0,4.0,78,0.00,,,0.00,meteohub,2013-01-30 07:59:00,